Time;durP1;ratioP1;P1;durP2;ratioP2;P2;SDS_P1;SDS_P2;PMS_P1;PMS_P2;Temp;Humidity;BMP_temperature;BMP_pressure;BME280_temperature;BME280_humidity;BME280_pressure;Samples;Min_cycle;Max_cycle;Signal;HPM_P1;HPM_P2
2022/10/22 00:01:14;;;;;;;5.85;5.30;;;10.80;99.90;;;;;;6184692;23;20174;-81
2022/10/22 00:03:42;;;;;;;10.95;5.75;;;10.80;99.90;;;;;;6184669;23;20171;-81
2022/10/22 00:06:10;;;;;;;8.02;5.60;;;10.80;99.90;;;;;;6185137;23;20173;-82
2022/10/22 00:08:40;;;;;;;6.72;5.70;;;10.80;99.90;;;;;;6184413;23;20202;-82
2022/10/22 00:11:10;;;;;;;7.65;4.72;;;10.70;99.90;;;;;;6184654;23;20175;-81
2022/10/22 00:13:38;;;;;;;7.30;6.03;;;10.70;99.90;;;;;;6184956;23;20177;-81
2022/10/22 00:16:07;;;;;;;6.88;5.00;;;10.70;99.90;;;;;;6184973;23;20194;-81
2022/10/22 00:18:35;;;;;;;5.60;5.05;;;10.70;99.90;;;;;;6184267;23;20194;-82
2022/10/22 00:21:05;;;;;;;10.40;5.55;;;10.70;99.90;;;;;;6184634;23;20212;-81
2022/10/22 00:23:33;;;;;;;8.75;5.30;;;10.70;99.90;;;;;;6184461;23;20175;-81
2022/10/22 00:26:03;;;;;;;5.97;4.80;;;10.70;99.90;;;;;;6184519;23;20182;-82
2022/10/22 00:28:31;;;;;;;11.52;6.28;;;10.70;99.90;;;;;;6184573;23;20170;-81
2022/10/22 00:31:00;;;;;;;5.18;4.60;;;10.80;99.90;;;;;;6184837;23;20174;-81
2022/10/22 00:33:30;;;;;;;8.13;5.15;;;10.80;99.90;;;;;;6184917;23;20170;-81
2022/10/22 00:35:59;;;;;;;5.72;5.20;;;10.80;99.90;;;;;;6186466;23;20194;-81
2022/10/22 00:38:27;;;;;;;7.50;4.95;;;10.80;99.90;;;;;;6186396;23;20178;-81
2022/10/22 00:40:56;;;;;;;5.82;5.32;;;10.90;99.90;;;;;;6187353;23;20175;-81
2022/10/22 00:43:27;;;;;;;6.53;4.90;;;10.80;99.90;;;;;;6186570;23;20202;-81
2022/10/22 00:45:55;;;;;;;6.45;5.00;;;10.80;99.90;;;;;;6186642;23;20171;-81
2022/10/22 00:48:26;;;;;;;5.50;4.90;;;10.80;99.90;;;;;;6186046;23;20178;-81
2022/10/22 00:50:58;;;;;;;6.35;5.05;;;10.80;99.90;;;;;;6186017;23;20170;-81
2022/10/22 00:53:30;;;;;;;5.10;4.55;;;10.80;99.90;;;;;;6186522;23;20167;-82
2022/10/22 00:55:58;;;;;;;9.25;6.18;;;10.70;99.90;;;;;;6186314;23;20202;-82
2022/10/22 00:58:31;;;;;;;5.97;4.80;;;10.70;99.90;;;;;;6186133;23;20171;-81
2022/10/22 01:00:59;;;;;;;5.22;4.60;;;10.70;99.90;;;;;;6186758;23;20189;-81
2022/10/22 01:03:28;;;;;;;5.57;4.95;;;10.60;99.90;;;;;;6186528;23;20198;-81
2022/10/22 01:05:58;;;;;;;4.95;4.53;;;10.70;99.90;;;;;;6186026;23;20166;-82
2022/10/22 01:08:39;;;;;;;5.38;4.88;;;10.60;99.90;;;;;;6186511;23;20170;-81
2022/10/22 01:11:16;;;;;;;6.57;5.68;;;10.60;99.90;;;;;;6186526;23;20237;-81
2022/10/22 01:13:54;;;;;;;15.55;6.03;;;10.60;99.90;;;;;;6186466;23;20166;-81
2022/10/22 01:16:30;;;;;;;8.95;5.75;;;10.60;99.90;;;;;;6185917;23;20182;-81
2022/10/22 01:19:14;;;;;;;5.45;4.97;;;10.60;99.90;;;;;;6185298;23;20194;-82
2022/10/22 01:21:46;;;;;;;5.32;4.93;;;10.60;99.90;;;;;;6186504;23;20177;-82
2022/10/22 01:24:35;;;;;;;6.28;5.38;;;10.60;99.90;;;;;;6186273;23;20167;-81
2022/10/22 01:27:20;;;;;;;5.32;4.75;;;10.50;99.90;;;;;;6181995;23;20205;-80
2022/10/22 01:29:52;;;;;;;6.68;5.20;;;10.50;99.90;;;;;;6185796;23;20191;-81
2022/10/22 01:32:23;;;;;;;7.85;5.70;;;10.50;99.90;;;;;;6186477;23;20186;-82
2022/10/22 01:34:55;;;;;;;8.88;5.10;;;10.50;99.90;;;;;;6185756;23;20205;-82
2022/10/22 01:37:28;;;;;;;5.00;4.50;;;10.50;99.90;;;;;;6185735;23;20194;-82
2022/10/22 01:39:58;;;;;;;5.03;4.15;;;10.60;99.90;;;;;;6185525;23;20221;-82
2022/10/22 01:42:26;;;;;;;5.72;4.65;;;10.50;99.90;;;;;;6185818;23;20178;-82
2022/10/22 01:44:56;;;;;;;7.13;5.55;;;10.50;99.90;;;;;;6186228;23;20182;-81
2022/10/22 01:47:39;;;;;;;14.18;5.03;;;10.50;99.90;;;;;;6185142;23;20174;-81
2022/10/22 01:50:43;;;;;;;7.85;4.18;;;10.50;99.90;;;;;;6185882;23;20190;-82
2022/10/22 01:53:21;;;;;;;5.60;4.95;;;10.50;99.90;;;;;;6181946;23;20181;-81
2022/10/22 01:56:01;;;;;;;4.97;4.50;;;10.50;99.90;;;;;;6186179;23;20178;-82
2022/10/22 01:58:39;;;;;;;5.40;4.85;;;10.50;99.90;;;;;;6185291;23;20173;-81
2022/10/22 02:01:18;;;;;;;4.68;4.22;;;10.50;99.90;;;;;;6185779;23;20174;-81
2022/10/22 02:03:52;;;;;;;12.68;5.05;;;10.40;99.90;;;;;;6186163;23;20189;-80
2022/10/22 02:06:24;;;;;;;6.07;4.32;;;10.40;99.90;;;;;;6186626;23;20171;-81
2022/10/22 02:08:54;;;;;;;5.40;4.60;;;10.30;99.90;;;;;;6185407;23;20194;-82
2022/10/22 02:11:22;;;;;;;5.18;4.68;;;10.30;99.90;;;;;;6185579;23;20175;-81
2022/10/22 02:13:56;;;;;;;6.97;4.43;;;10.30;99.90;;;;;;6186082;23;20182;-81
2022/10/22 02:16:30;;;;;;;6.22;5.55;;;10.30;99.90;;;;;;6185441;23;20193;-81
2022/10/22 02:19:03;;;;;;;6.30;5.05;;;10.30;99.90;;;;;;6185693;23;20197;-81
2022/10/22 02:21:31;;;;;;;6.57;5.38;;;10.30;99.90;;;;;;6185728;23;20230;-81
2022/10/22 02:24:00;;;;;;;5.60;4.88;;;10.20;99.90;;;;;;6185162;23;20174;-81
2022/10/22 02:26:33;;;;;;;5.35;4.85;;;10.30;99.90;;;;;;6185438;23;20166;-82
2022/10/22 02:29:08;;;;;;;5.00;4.50;;;10.20;99.90;;;;;;6185465;23;20195;-80
2022/10/22 02:31:42;;;;;;;5.68;4.85;;;10.30;99.90;;;;;;6185948;23;20166;-81
2022/10/22 02:34:14;;;;;;;7.30;5.50;;;10.30;99.90;;;;;;6185546;23;20188;-82
2022/10/22 02:36:43;;;;;;;7.28;5.32;;;10.30;99.90;;;;;;6185368;23;20190;-81
2022/10/22 02:39:19;;;;;;;4.90;4.50;;;10.30;99.90;;;;;;6185293;23;20197;-81
2022/10/22 02:41:48;;;;;;;5.97;5.20;;;10.30;99.90;;;;;;6185373;23;20166;-81
2022/10/22 02:44:20;;;;;;;5.60;5.10;;;10.30;99.90;;;;;;6185580;23;20178;-83
2022/10/22 02:46:50;;;;;;;10.77;4.57;;;10.30;99.90;;;;;;6185759;23;20163;-80
2022/10/22 02:49:18;;;;;;;5.43;4.93;;;10.30;99.90;;;;;;6184637;23;20198;-81
2022/10/22 02:51:46;;;;;;;5.55;5.07;;;10.30;99.90;;;;;;6185389;23;20175;-81
2022/10/22 02:54:15;;;;;;;6.93;4.85;;;10.30;99.90;;;;;;6185294;23;20171;-82
2022/10/22 02:56:43;;;;;;;5.55;4.65;;;10.20;99.90;;;;;;6185212;23;20194;-81
2022/10/22 02:59:11;;;;;;;6.80;5.30;;;10.20;99.90;;;;;;6185259;23;20201;-81
2022/10/22 03:01:39;;;;;;;6.15;4.60;;;10.20;99.90;;;;;;6184980;23;20178;-81
2022/10/22 03:04:09;;;;;;;7.75;5.13;;;10.20;99.90;;;;;;6185216;23;20174;-81
2022/10/22 03:06:37;;;;;;;6.15;4.85;;;10.20;99.90;;;;;;6185177;23;20217;-81
2022/10/22 03:09:06;;;;;;;4.68;4.25;;;10.10;99.90;;;;;;6185081;23;20194;-81
2022/10/22 03:11:34;;;;;;;5.72;4.95;;;10.10;99.90;;;;;;6185526;23;20234;-81
2022/10/22 03:14:02;;;;;;;4.70;4.13;;;10.20;99.90;;;;;;6185651;23;20181;-81
2022/10/22 03:16:30;;;;;;;7.38;4.80;;;10.10;99.90;;;;;;6185192;23;20185;-81
2022/10/22 03:19:00;;;;;;;5.82;5.15;;;10.10;99.90;;;;;;6184314;23;20194;-81
2022/10/22 03:21:34;;;;;;;5.38;4.60;;;10.10;99.90;;;;;;6185289;23;20166;-82
2022/10/22 03:24:05;;;;;;;5.53;5.00;;;10.10;99.90;;;;;;6185559;23;20175;-81
2022/10/22 03:26:34;;;;;;;10.80;5.25;;;10.10;99.90;;;;;;6185292;23;20183;-81
2022/10/22 03:29:03;;;;;;;5.85;4.82;;;10.10;99.90;;;;;;6184789;23;20191;-81
2022/10/22 03:31:31;;;;;;;4.75;4.35;;;10.10;99.90;;;;;;6185082;23;20177;-81
2022/10/22 03:33:59;;;;;;;5.10;4.60;;;10.10;99.90;;;;;;6185040;23;20174;-81
2022/10/22 03:36:27;;;;;;;4.43;4.03;;;10.20;99.90;;;;;;6185157;23;20178;-81
2022/10/22 03:38:57;;;;;;;5.93;5.32;;;10.20;99.90;;;;;;6184996;23;20190;-81
2022/10/22 03:41:25;;;;;;;4.63;4.22;;;10.20;99.90;;;;;;6184816;23;20174;-81
2022/10/22 03:43:54;;;;;;;6.43;5.20;;;10.20;99.90;;;;;;6184909;23;20182;-81
2022/10/22 03:46:22;;;;;;;8.00;5.65;;;10.20;99.90;;;;;;6184476;23;20170;-81
2022/10/22 03:48:50;;;;;;;4.38;4.03;;;10.10;99.90;;;;;;6184589;23;20197;-81
2022/10/22 03:51:19;;;;;;;4.70;4.35;;;10.10;99.90;;;;;;6184828;23;20178;-82
2022/10/22 03:53:47;;;;;;;5.95;5.45;;;10.10;99.90;;;;;;6185604;23;20174;-81
2022/10/22 03:56:17;;;;;;;5.32;4.88;;;10.00;99.90;;;;;;6184838;23;20174;-81
2022/10/22 03:58:45;;;;;;;4.82;4.43;;;10.00;99.90;;;;;;6184296;23;20248;-81
2022/10/22 04:01:14;;;;;;;6.93;4.85;;;10.00;99.90;;;;;;6184911;23;20178;-81
2022/10/22 04:03:42;;;;;;;6.13;5.45;;;10.00;99.90;;;;;;6184988;23;20178;-81
2022/10/22 04:06:12;;;;;;;5.50;4.88;;;9.90;99.90;;;;;;6185148;23;20174;-81
2022/10/22 04:08:41;;;;;;;5.70;5.10;;;9.90;99.90;;;;;;6184392;23;20191;-81
2022/10/22 04:11:10;;;;;;;5.70;5.03;;;9.90;99.90;;;;;;6184994;23;20171;-81
2022/10/22 04:13:40;;;;;;;5.65;5.00;;;9.90;99.90;;;;;;6184613;23;20174;-81
2022/10/22 04:16:09;;;;;;;6.82;5.72;;;9.90;99.90;;;;;;6184712;23;20171;-81
2022/10/22 04:18:38;;;;;;;7.18;5.30;;;9.90;99.90;;;;;;6184701;23;20198;-81
2022/10/22 04:21:08;;;;;;;7.07;5.57;;;9.80;99.90;;;;;;6184855;23;20178;-81
2022/10/22 04:23:37;;;;;;;5.15;4.63;;;9.80;99.90;;;;;;6184627;23;20166;-81
2022/10/22 04:26:07;;;;;;;6.53;4.97;;;9.80;99.90;;;;;;6184393;23;20186;-81
2022/10/22 04:28:36;;;;;;;5.28;4.88;;;9.80;99.90;;;;;;6184267;23;20201;-81
2022/10/22 04:31:10;;;;;;;8.50;5.82;;;9.80;99.90;;;;;;6184446;23;20179;-81
2022/10/22 04:33:39;;;;;;;6.78;5.63;;;9.70;99.90;;;;;;6185093;23;20174;-81
2022/10/22 04:36:08;;;;;;;4.85;4.45;;;9.80;99.90;;;;;;6184152;23;20175;-83
2022/10/22 04:38:36;;;;;;;7.53;4.78;;;9.70;99.90;;;;;;6184318;23;20194;-81
2022/10/22 04:41:15;;;;;;;9.35;5.10;;;9.80;99.90;;;;;;6184178;23;20183;-83
2022/10/22 04:43:44;;;;;;;7.75;5.00;;;9.70;99.90;;;;;;6184809;23;20182;-81
2022/10/22 04:46:16;;;;;;;5.50;5.10;;;9.80;99.90;;;;;;6184610;23;20174;-83
2022/10/22 04:48:45;;;;;;;13.90;5.30;;;9.80;99.90;;;;;;6184392;23;20198;-81
2022/10/22 04:51:16;;;;;;;6.40;5.00;;;9.80;99.90;;;;;;6184483;23;20178;-81
2022/10/22 04:53:45;;;;;;;6.97;5.63;;;9.90;99.90;;;;;;6184384;23;20171;-81
2022/10/22 04:56:15;;;;;;;5.30;4.80;;;9.90;99.90;;;;;;6184215;23;20207;-82
2022/10/22 04:58:44;;;;;;;6.18;5.35;;;9.90;99.90;;;;;;6184576;23;20203;-81
2022/10/22 05:01:15;;;;;;;4.55;4.15;;;10.00;99.90;;;;;;6184666;23;20181;-81
2022/10/22 05:03:44;;;;;;;6.47;5.88;;;10.00;99.90;;;;;;6184437;23;20218;-82
2022/10/22 05:06:13;;;;;;;5.78;5.18;;;10.00;99.90;;;;;;6184773;23;20178;-82
2022/10/22 05:08:42;;;;;;;5.63;5.07;;;10.00;99.90;;;;;;6183903;23;20241;-81
2022/10/22 05:11:12;;;;;;;7.07;5.38;;;9.90;99.90;;;;;;6184769;23;20178;-82
2022/10/22 05:13:40;;;;;;;11.32;5.63;;;10.00;99.90;;;;;;6184553;23;20181;-81
2022/10/22 05:16:08;;;;;;;5.47;4.88;;;10.00;99.90;;;;;;6184284;23;20178;-81
2022/10/22 05:18:40;;;;;;;5.78;5.25;;;10.00;99.90;;;;;;6183786;23;20198;-81
2022/10/22 05:21:10;;;;;;;7.25;4.97;;;10.00;99.90;;;;;;6184314;23;20175;-81
2022/10/22 05:23:38;;;;;;;9.55;5.65;;;10.00;99.90;;;;;;6186162;23;20197;-81
2022/10/22 05:26:08;;;;;;;5.43;4.75;;;10.00;99.90;;;;;;6185999;23;20231;-81
2022/10/22 05:28:36;;;;;;;7.65;5.15;;;10.00;99.90;;;;;;6185864;23;20194;-81
2022/10/22 05:31:06;;;;;;;16.45;5.80;;;10.00;99.90;;;;;;6186210;23;20186;-82
2022/10/22 05:33:35;;;;;;;7.70;5.40;;;10.00;99.90;;;;;;6185959;23;20182;-83
2022/10/22 05:36:07;;;;;;;6.53;5.47;;;10.00;99.90;;;;;;6186363;23;20181;-82
2022/10/22 05:38:36;;;;;;;6.88;5.63;;;10.00;99.90;;;;;;6186029;23;20206;-82
2022/10/22 05:41:05;;;;;;;6.03;4.53;;;10.00;99.90;;;;;;6186008;23;20175;-81
2022/10/22 05:43:34;;;;;;;5.97;5.00;;;10.00;99.90;;;;;;6186002;23;20182;-82
2022/10/22 05:46:05;;;;;;;5.60;5.05;;;10.00;99.90;;;;;;6185745;23;20178;-82
2022/10/22 05:48:43;;;;;;;14.77;6.30;;;10.00;99.90;;;;;;6185089;23;20178;-87
2022/10/22 05:54:55;;;;;;;6.25;5.63;;;10.00;99.90;;;;;;6072076;23;20181;-89
2022/10/22 06:03:54;;;;;;;7.70;6.20;;;10.10;99.90;;;;;;6092707;23;20309;-90
2022/10/22 06:06:29;;;;;;;6.25;5.40;;;10.20;99.90;;;;;;6094789;23;20204;-92
2022/10/22 06:09:08;;;;;;;7.10;5.68;;;10.20;99.90;;;;;;6094664;23;20192;-88
2022/10/22 06:12:13;;;;;;;6.97;5.55;;;10.20;99.90;;;;;;6095007;23;20168;-90
2022/10/22 06:15:15;;;;;;;5.97;5.38;;;10.20;99.90;;;;;;6094789;23;20173;-90
2022/10/22 06:17:59;;;;;;;6.40;5.22;;;10.20;99.90;;;;;;6094917;23;20184;-89
2022/10/22 06:23:47;;;;;;;5.70;5.20;;;10.30;99.90;;;;;;6085461;23;20173;-90
2022/10/22 06:29:46;;;;;;;6.63;5.35;;;10.40;99.90;;;;;;6152257;23;20190;-89
2022/10/22 06:32:14;;;;;;;5.97;5.40;;;10.40;99.90;;;;;;6185855;23;20166;-92
2022/10/22 06:34:42;;;;;;;6.30;5.70;;;10.50;99.90;;;;;;6185745;23;20171;-92
2022/10/22 06:37:19;;;;;;;6.18;5.57;;;10.50;99.90;;;;;;6185921;23;20183;-90
2022/10/22 06:40:03;;;;;;;6.35;5.72;;;10.60;99.90;;;;;;6184849;23;20198;-92
2022/10/22 06:42:31;;;;;;;6.93;6.22;;;10.60;99.90;;;;;;6185834;23;20182;-92
2022/10/22 06:45:03;;;;;;;8.15;6.13;;;10.70;99.90;;;;;;6185487;23;20179;-90
2022/10/22 06:47:45;;;;;;;8.68;6.25;;;10.70;99.90;;;;;;6185043;23;20170;-90
2022/10/22 06:50:18;;;;;;;6.75;5.50;;;10.80;99.90;;;;;;6185144;23;20253;-89
2022/10/22 06:55:43;;;;;;;6.40;5.68;;;10.90;99.90;;;;;;6185620;23;20177;-90
2022/10/22 07:01:15;;;;;;;7.50;6.55;;;11.10;99.90;;;;;;6185045;23;20230;-90
2022/10/22 07:04:20;;;;;;;6.50;5.55;;;11.20;99.90;;;;;;6185011;23;20174;-90
2022/10/22 07:06:54;;;;;;;6.43;5.82;;;11.30;99.90;;;;;;6046262;23;20174;-90
2022/10/22 07:09:23;;;;;;;7.57;6.57;;;11.40;99.90;;;;;;6184593;23;20193;-89
2022/10/22 07:12:02;;;;;;;7.45;6.18;;;11.40;99.90;;;;;;6185414;23;20174;-89
2022/10/22 07:18:21;;;;;;;7.22;5.70;;;11.50;99.90;;;;;;6132358;23;20258;-90
2022/10/22 07:21:21;;;;;;;11.27;6.05;;;11.60;99.90;;;;;;6140115;23;20186;-90
2022/10/22 07:30:54;;;;;;;6.30;5.70;;;11.60;99.90;;;;;;6065084;23;20252;-90
2022/10/22 07:37:09;;;;;;;10.13;6.63;;;11.20;99.90;;;;;;6185064;23;20170;-89
2022/10/22 07:42:50;;;;;;;8.68;6.25;;;11.20;99.90;;;;;;6180901;23;20174;-90
2022/10/22 07:45:34;;;;;;;7.53;6.82;;;11.20;99.90;;;;;;6184352;23;20174;-89
2022/10/22 07:48:21;;;;;;;6.88;6.25;;;11.20;99.90;;;;;;6184406;23;20174;-90
2022/10/22 07:54:54;;;;;;;8.05;7.13;;;11.40;99.90;;;;;;6004280;23;20177;-90
2022/10/22 07:58:00;;;;;;;8.93;7.25;;;11.30;99.90;;;;;;5978232;24;20179;-90
2022/10/22 08:01:13;;;;;;;7.05;6.43;;;11.20;99.90;;;;;;5979796;24;20191;-89
2022/10/22 08:04:08;;;;;;;;;;;;;;;;;;;;;
2022/10/22 08:10:03;;;;;;;7.70;6.85;;;11.50;99.90;;;;;;6027385;23;20209;-90
2022/10/22 08:16:06;;;;;;;9.30;8.07;;;11.70;99.90;;;;;;6025121;23;20180;-90
2022/10/22 08:22:22;;;;;;;7.68;6.88;;;11.90;99.90;;;;;;6035990;23;20182;-90
2022/10/22 08:25:41;;;;;;;8.75;7.50;;;11.90;99.90;;;;;;6035867;23;20182;-90
2022/10/22 08:28:13;;;;;;;8.65;7.15;;;12.10;99.90;;;;;;6036386;23;20218;-89
2022/10/22 08:34:37;;;;;;;10.13;8.88;;;12.20;99.90;;;;;;6183512;23;20197;-89
2022/10/22 08:44:38;;;;;;;9.70;8.23;;;12.30;99.90;;;;;;6184517;23;20258;-89
2022/10/22 08:47:57;;;;;;;10.27;9.15;;;12.30;99.90;;;;;;6184029;23;20175;-89
2022/10/22 08:50:39;;;;;;;8.52;7.72;;;12.30;99.90;;;;;;6064121;23;20193;-89
2022/10/22 08:53:38;;;;;;;10.40;8.57;;;12.20;99.90;;;;;;6184680;23;20233;-90
2022/10/22 08:56:07;;;;;;;10.48;9.45;;;12.20;99.90;;;;;;6186060;23;20182;-90
2022/10/22 08:58:42;;;;;;;10.15;8.60;;;12.20;99.90;;;;;;6186199;23;20178;-89
2022/10/22 09:01:15;;;;;;;9.77;8.88;;;12.10;99.90;;;;;;6186392;23;20196;-90
2022/10/22 09:03:50;;;;;;;11.20;9.45;;;12.00;99.90;;;;;;6186503;23;20163;-89
2022/10/22 09:06:25;;;;;;;12.43;10.00;;;12.00;99.90;;;;;;6186449;23;20163;-91
2022/10/22 09:08:58;;;;;;;17.63;10.07;;;11.90;99.90;;;;;;6186372;23;20198;-90
2022/10/22 09:11:32;;;;;;;10.85;9.80;;;11.90;99.90;;;;;;6186285;23;20177;-90
2022/10/22 09:14:04;;;;;;;11.82;10.65;;;11.90;99.90;;;;;;6186467;23;20223;-90
2022/10/22 09:16:46;;;;;;;10.68;9.60;;;11.90;99.90;;;;;;6186085;23;20169;-89
2022/10/22 09:19:24;;;;;;;12.63;9.73;;;11.90;99.90;;;;;;6186038;23;20246;-89
2022/10/22 09:21:59;;;;;;;22.13;11.60;;;11.90;99.90;;;;;;6186424;23;20167;-91
2022/10/22 09:24:39;;;;;;;13.02;11.30;;;11.90;99.90;;;;;;6185715;23;20197;-89
2022/10/22 09:27:27;;;;;;;11.25;10.23;;;12.00;99.90;;;;;;6186246;23;20175;-90
2022/10/22 09:30:00;;;;;;;12.27;11.07;;;12.00;99.90;;;;;;6185701;23;20213;-89
2022/10/22 09:32:30;;;;;;;12.27;10.75;;;12.00;99.90;;;;;;6185735;23;20178;-90
2022/10/22 09:34:58;;;;;;;14.52;12.45;;;12.00;99.90;;;;;;6186374;23;20226;-89
2022/10/22 09:37:30;;;;;;;13.00;11.60;;;12.00;99.90;;;;;;6185561;23;20194;-89
2022/10/22 09:40:05;;;;;;;11.45;10.27;;;12.00;99.90;;;;;;6186097;23;20195;-91
2022/10/22 09:42:34;;;;;;;12.18;10.98;;;12.00;99.90;;;;;;6186133;23;20166;-89
2022/10/22 09:45:03;;;;;;;12.77;10.93;;;12.00;99.90;;;;;;6185472;23;20261;-88
2022/10/22 09:47:38;;;;;;;13.93;12.55;;;12.00;99.90;;;;;;6186182;23;20179;-89
2022/10/22 09:50:30;;;;;;;21.15;11.18;;;12.00;99.90;;;;;;6185756;23;20194;-88
2022/10/22 09:53:01;;;;;;;12.35;11.18;;;12.10;99.90;;;;;;6185887;23;20171;-88
2022/10/22 09:55:31;;;;;;;12.80;11.48;;;12.00;99.90;;;;;;6185649;23;20178;-89
2022/10/22 09:58:01;;;;;;;16.63;11.98;;;12.00;99.90;;;;;;6185944;23;20181;-88
2022/10/22 10:00:31;;;;;;;13.32;11.82;;;12.00;99.90;;;;;;6185392;23;20201;-89
2022/10/22 10:03:00;;;;;;;13.20;11.63;;;12.00;99.90;;;;;;6185816;23;20177;-88
2022/10/22 10:05:31;;;;;;;13.82;12.52;;;12.00;99.90;;;;;;6185466;23;20177;-88
2022/10/22 10:08:02;;;;;;;14.45;12.95;;;11.90;99.90;;;;;;6185417;23;20226;-88
2022/10/22 10:10:43;;;;;;;12.55;11.45;;;12.00;99.90;;;;;;6185702;23;20190;-87
2022/10/22 10:13:37;;;;;;;15.57;13.15;;;12.10;99.90;;;;;;6185758;23;20166;-88
2022/10/22 10:16:13;;;;;;;13.88;12.40;;;12.10;99.90;;;;;;6185416;23;20174;-87
2022/10/22 10:18:56;;;;;;;12.93;11.77;;;12.10;99.90;;;;;;6184945;23;20190;-87
2022/10/22 10:21:34;;;;;;;12.60;11.45;;;12.20;99.90;;;;;;6185588;23;20187;-88
2022/10/22 10:24:10;;;;;;;14.00;12.48;;;12.20;99.90;;;;;;6185482;23;20257;-87
2022/10/22 10:26:47;;;;;;;14.20;12.70;;;12.30;99.90;;;;;;6186063;23;20249;-87
2022/10/22 10:29:28;;;;;;;14.95;13.63;;;12.30;99.90;;;;;;6185475;23;20194;-87
2022/10/22 10:32:15;;;;;;;15.30;13.80;;;12.40;99.90;;;;;;6185866;23;20203;-87
2022/10/22 10:34:58;;;;;;;23.17;15.95;;;12.60;99.90;;;;;;6185701;23;20184;-88
2022/10/22 10:37:32;;;;;;;19.30;16.55;;;12.70;99.90;;;;;;6185545;23;20166;-87
2022/10/22 10:40:16;;;;;;;17.80;15.65;;;12.70;99.90;;;;;;6185027;23;20198;-87
2022/10/22 10:42:52;;;;;;;13.68;12.48;;;12.90;99.90;;;;;;6185547;23;20179;-86
2022/10/22 10:45:27;;;;;;;14.07;12.05;;;12.90;99.90;;;;;;6185385;23;20170;-86
2022/10/22 10:48:18;;;;;;;14.10;12.63;;;13.10;99.90;;;;;;6185544;23;20166;-87
2022/10/22 10:50:57;;;;;;;12.68;11.13;;;13.20;99.90;;;;;;6185526;23;20172;-86
2022/10/22 10:53:36;;;;;;;10.25;9.25;;;13.40;99.90;;;;;;6185606;23;20167;-87
2022/10/22 10:56:08;;;;;;;11.27;10.23;;;13.50;99.90;;;;;;6185402;23;20181;-87
2022/10/22 10:58:45;;;;;;;9.85;9.05;;;13.60;99.90;;;;;;6184623;23;20201;-86
2022/10/22 11:01:24;;;;;;;11.65;8.85;;;13.70;99.90;;;;;;6185100;23;20183;-87
2022/10/22 11:04:24;;;;;;;9.52;8.48;;;13.80;99.90;;;;;;6185081;23;20166;-87
2022/10/22 11:06:56;;;;;;;8.65;7.90;;;13.90;99.90;;;;;;6185471;23;20171;-86
2022/10/22 11:09:44;;;;;;;10.18;9.18;;;14.00;99.90;;;;;;6184734;23;20194;-86
2022/10/22 11:12:21;;;;;;;9.07;8.18;;;14.10;99.90;;;;;;6185119;23;20163;-87
2022/10/22 11:14:59;;;;;;;10.38;9.40;;;14.20;99.90;;;;;;6184827;23;20181;-86
2022/10/22 11:17:36;;;;;;;8.40;7.63;;;14.30;99.90;;;;;;6185551;23;20185;-86
2022/10/22 11:20:13;;;;;;;8.07;7.00;;;14.40;99.90;;;;;;6184739;23;20195;-86
2022/10/22 11:22:47;;;;;;;6.38;5.82;;;14.50;99.90;;;;;;6184100;23;20225;-86
2022/10/22 11:25:44;;;;;;;7.45;6.32;;;14.60;99.90;;;;;;6185095;23;20166;-87
2022/10/22 11:28:17;;;;;;;7.00;6.35;;;14.60;99.90;;;;;;6184733;23;20166;-88
2022/10/22 11:30:53;;;;;;;8.18;6.82;;;14.70;99.90;;;;;;6185282;23;20167;-89
2022/10/22 11:33:26;;;;;;;5.97;5.40;;;14.80;99.90;;;;;;6185375;23;20174;-90
2022/10/22 11:35:59;;;;;;;6.05;4.93;;;14.90;99.90;;;;;;6184845;23;20253;-86
2022/10/22 11:38:28;;;;;;;4.97;4.57;;;15.00;99.90;;;;;;6185113;23;20167;-87
2022/10/22 11:41:06;;;;;;;14.10;5.85;;;15.10;99.90;;;;;;6184573;23;20198;-88
2022/10/22 11:43:51;;;;;;;5.85;4.75;;;15.10;99.90;;;;;;6184964;23;20182;-87
2022/10/22 11:46:34;;;;;;;5.63;5.13;;;15.20;99.90;;;;;;6185114;23;20174;-87
2022/10/22 11:49:15;;;;;;;6.03;4.80;;;15.20;99.90;;;;;;6184283;23;20194;-87
2022/10/22 11:51:45;;;;;;;5.03;4.63;;;15.20;99.90;;;;;;6184863;23;20201;-87
2022/10/22 11:54:30;;;;;;;6.10;3.85;;;15.20;99.90;;;;;;6184800;23;20174;-87
2022/10/22 11:57:18;;;;;;;4.10;3.80;;;15.20;99.90;;;;;;6185278;23;20174;-87
2022/10/22 11:59:51;;;;;;;4.03;3.70;;;15.30;99.90;;;;;;6184789;23;20221;-89
2022/10/22 12:02:42;;;;;;;3.40;3.10;;;15.30;99.90;;;;;;6184777;23;20198;-90
2022/10/22 12:05:35;;;;;;;3.45;3.15;;;15.30;99.90;;;;;;6184849;23;20174;-89
2022/10/22 12:08:21;;;;;;;3.63;3.08;;;15.30;99.90;;;;;;6184746;23;20173;-89
2022/10/22 12:11:06;;;;;;;2.47;2.38;;;15.30;99.90;;;;;;6185103;23;20206;-89
2022/10/22 12:14:01;;;;;;;3.38;3.08;;;15.30;99.90;;;;;;6184822;23;20234;-88
2022/10/22 12:16:36;;;;;;;2.70;2.50;;;15.30;99.90;;;;;;6184769;23;20169;-88
2022/10/22 12:19:30;;;;;;;4.13;2.58;;;15.30;99.90;;;;;;6184171;23;20222;-88
2022/10/22 12:22:02;;;;;;;2.78;2.25;;;15.30;99.90;;;;;;6184434;23;20197;-87
2022/10/22 12:24:34;;;;;;;2.53;2.33;;;15.40;99.90;;;;;;6184674;23;20175;-88
2022/10/22 12:27:03;;;;;;;2.15;2.05;;;15.40;99.90;;;;;;6184511;23;20178;-87
2022/10/22 12:29:33;;;;;;;2.55;2.35;;;15.40;99.90;;;;;;6184618;23;20191;-87
2022/10/22 12:32:04;;;;;;;2.30;2.08;;;15.40;99.90;;;;;;6186219;23;20177;-87
2022/10/22 12:34:34;;;;;;;2.83;2.63;;;15.40;99.90;;;;;;6186823;23;20170;-87
2022/10/22 12:37:05;;;;;;;4.00;2.30;;;15.40;99.90;;;;;;6186507;23;20175;-87
2022/10/22 12:39:34;;;;;;;2.60;2.40;;;15.40;99.90;;;;;;6186720;23;20249;-91
2022/10/22 12:42:05;;;;;;;1.95;1.80;;;15.40;99.90;;;;;;6186432;23;20201;-90
2022/10/22 12:44:33;;;;;;;2.00;1.90;;;15.40;99.90;;;;;;6186802;23;20186;-87
2022/10/22 12:47:02;;;;;;;2.30;2.10;;;15.40;99.90;;;;;;6186710;23;20253;-90
2022/10/22 12:49:38;;;;;;;4.60;1.80;;;15.40;99.90;;;;;;6185856;23;20198;-88
2022/10/22 12:52:13;;;;;;;2.85;2.25;;;15.40;99.90;;;;;;6186119;23;20166;-90
2022/10/22 12:54:41;;;;;;;1.98;1.88;;;15.50;99.90;;;;;;6185843;23;20173;-89
2022/10/22 12:57:13;;;;;;;2.85;2.20;;;15.50;99.90;;;;;;6186077;23;20171;-90
2022/10/22 12:59:43;;;;;;;2.25;2.08;;;15.50;99.90;;;;;;6186097;23;20199;-90
2022/10/22 13:02:21;;;;;;;4.10;2.33;;;15.50;99.90;;;;;;6186044;23;20190;-89
2022/10/22 13:05:17;;;;;;;1.88;1.77;;;15.40;99.90;;;;;;6186768;23;20210;-90
2022/10/22 13:07:49;;;;;;;2.17;2.08;;;15.40;99.90;;;;;;6186015;23;20170;-90
2022/10/22 13:10:22;;;;;;;3.33;2.28;;;15.40;99.90;;;;;;6185766;23;20190;-89
2022/10/22 13:12:54;;;;;;;2.53;2.33;;;15.40;99.90;;;;;;6186137;23;20182;-89
2022/10/22 13:15:34;;;;;;;3.00;2.70;;;15.40;99.90;;;;;;6185862;23;20181;-89
2022/10/22 13:18:05;;;;;;;2.80;2.60;;;15.30;99.90;;;;;;6186680;23;20170;-89
2022/10/22 13:20:37;;;;;;;2.40;2.22;;;15.30;99.90;;;;;;6186222;23;20202;-89
2022/10/22 13:23:06;;;;;;;3.08;2.67;;;15.20;99.90;;;;;;6185544;23;20183;-89
2022/10/22 13:25:37;;;;;;;3.63;2.67;;;15.20;99.90;;;;;;6186461;23;20174;-90
2022/10/22 13:28:19;;;;;;;3.50;2.35;;;15.20;99.90;;;;;;6186095;23;20177;-90
2022/10/22 13:30:53;;;;;;;2.65;2.45;;;15.20;99.90;;;;;;6186375;23;20163;-89
2022/10/22 13:33:26;;;;;;;2.55;2.35;;;15.20;99.90;;;;;;6185973;23;20182;-89
2022/10/22 13:35:57;;;;;;;2.08;1.98;;;15.20;99.90;;;;;;6186017;23;20213;-89
2022/10/22 13:38:27;;;;;;;2.65;2.42;;;15.10;99.90;;;;;;6185670;23;20170;-89
2022/10/22 13:40:56;;;;;;;4.63;2.60;;;15.20;99.90;;;;;;6185870;23;20177;-90
2022/10/22 13:43:25;;;;;;;2.55;2.35;;;15.10;99.90;;;;;;6185395;23;20201;-90
2022/10/22 13:45:55;;;;;;;2.60;2.38;;;15.10;99.90;;;;;;6186382;23;20178;-90
2022/10/22 13:48:25;;;;;;;2.88;2.25;;;15.10;99.90;;;;;;6185730;23;20175;-89
2022/10/22 13:50:55;;;;;;;3.33;2.50;;;15.10;99.90;;;;;;6185812;23;20193;-89
2022/10/22 13:53:25;;;;;;;2.67;2.47;;;15.10;99.90;;;;;;6185965;23;20186;-90
2022/10/22 13:55:53;;;;;;;3.10;2.20;;;15.10;99.90;;;;;;6185580;23;20187;-90
2022/10/22 13:58:23;;;;;;;2.70;2.50;;;15.00;99.90;;;;;;6185650;23;20186;-90
2022/10/22 14:00:54;;;;;;;2.40;2.20;;;15.00;99.90;;;;;;6185713;23;20175;-90
2022/10/22 14:03:27;;;;;;;3.80;2.85;;;15.00;99.90;;;;;;6185386;23;20245;-90
2022/10/22 14:05:57;;;;;;;5.07;2.78;;;15.00;99.90;;;;;;6185959;23;20162;-90
2022/10/22 14:08:27;;;;;;;2.20;2.00;;;15.00;99.90;;;;;;6185526;23;20177;-90
2022/10/22 14:10:55;;;;;;;2.95;2.58;;;15.00;99.90;;;;;;6185728;23;20175;-90
2022/10/22 14:13:23;;;;;;;2.72;2.45;;;15.00;99.90;;;;;;6185394;23;20174;-89
2022/10/22 14:15:52;;;;;;;3.00;2.72;;;15.00;99.90;;;;;;6185451;23;20174;-90
2022/10/22 14:18:25;;;;;;;2.55;2.35;;;15.00;99.90;;;;;;6185412;23;20180;-90
2022/10/22 14:20:57;;;;;;;2.17;2.08;;;15.00;99.90;;;;;;6185497;23;20179;-89
2022/10/22 14:23:28;;;;;;;2.05;1.90;;;15.00;99.90;;;;;;6184962;23;20193;-87
2022/10/22 14:25:57;;;;;;;3.30;2.30;;;15.00;99.90;;;;;;6185273;23;20178;-90
2022/10/22 14:28:25;;;;;;;2.30;2.15;;;14.90;99.90;;;;;;6185273;23;20182;-89